sensor_id;sensor_type;location;lat;lon;timestamp;pressure;altitude;pressure_sealevel;temperature;humidity
5609;BME280;2826;51.354;9.588;2023-07-22T00:00:02;97983.19;;;15.43;80.67
5609;BME280;2826;51.354;9.588;2023-07-22T00:02:32;97992.16;;;15.39;80.65
5609;BME280;2826;51.354;9.588;2023-07-22T00:04:59;97986.28;;;15.35;80.30
5609;BME280;2826;51.354;9.588;2023-07-22T00:07:26;97983.97;;;15.45;79.85
5609;BME280;2826;51.354;9.588;2023-07-22T00:09:52;97989.28;;;15.44;79.91
5609;BME280;2826;51.354;9.588;2023-07-22T00:12:20;97986.22;;;15.37;80.25
5609;BME280;2826;51.354;9.588;2023-07-22T00:14:51;97990.41;;;15.39;79.39
5609;BME280;2826;51.354;9.588;2023-07-22T00:17:18;97985.56;;;15.33;79.76
5609;BME280;2826;51.354;9.588;2023-07-22T00:19:47;97989.31;;;15.29;79.74
5609;BME280;2826;51.354;9.588;2023-07-22T00:22:14;97988.63;;;15.25;80.44
5609;BME280;2826;51.354;9.588;2023-07-22T00:24:41;97977.53;;;15.22;80.39
5609;BME280;2826;51.354;9.588;2023-07-22T00:27:08;97982.31;;;15.15;80.79
5609;BME280;2826;51.354;9.588;2023-07-22T00:29:35;97978.13;;;15.12;81.02
5609;BME280;2826;51.354;9.588;2023-07-22T00:32:05;97978.28;;;15.09;80.94
5609;BME280;2826;51.354;9.588;2023-07-22T00:34:34;97974.88;;;15.09;81.11
5609;BME280;2826;51.354;9.588;2023-07-22T00:37:02;97976.91;;;15.04;81.08
5609;BME280;2826;51.354;9.588;2023-07-22T00:39:29;97983.81;;;15.05;81.09
5609;BME280;2826;51.354;9.588;2023-07-22T00:41:55;97983.06;;;15.02;80.67
5609;BME280;2826;51.354;9.588;2023-07-22T00:44:22;97986.59;;;15.01;80.90
5609;BME280;2826;51.354;9.588;2023-07-22T00:46:50;97984.75;;;15.04;80.88
5609;BME280;2826;51.354;9.588;2023-07-22T00:49:19;97986.59;;;15.01;80.80
5609;BME280;2826;51.354;9.588;2023-07-22T00:51:46;97979.06;;;14.97;80.63
5609;BME280;2826;51.354;9.588;2023-07-22T00:54:14;97985.28;;;14.94;80.97
5609;BME280;2826;51.354;9.588;2023-07-22T00:56:41;97984.28;;;14.97;80.73
5609;BME280;2826;51.354;9.588;2023-07-22T00:59:10;97981.69;;;14.97;80.74
5609;BME280;2826;51.354;9.588;2023-07-22T01:01:37;97978.31;;;14.95;80.95
5609;BME280;2826;51.354;9.588;2023-07-22T01:04:04;97971.50;;;14.92;80.54
5609;BME280;2826;51.354;9.588;2023-07-22T01:06:31;97972.63;;;14.88;81.27
5609;BME280;2826;51.354;9.588;2023-07-22T01:08:58;97976.91;;;14.89;80.88
5609;BME280;2826;51.354;9.588;2023-07-22T01:11:26;97980.38;;;14.89;80.92
5609;BME280;2826;51.354;9.588;2023-07-22T01:13:53;97971.03;;;14.85;81.33
5609;BME280;2826;51.354;9.588;2023-07-22T01:16:25;97969.38;;;14.84;80.94
5609;BME280;2826;51.354;9.588;2023-07-22T01:18:52;97972.91;;;14.83;80.85
5609;BME280;2826;51.354;9.588;2023-07-22T01:21:21;97973.09;;;14.80;81.13
5609;BME280;2826;51.354;9.588;2023-07-22T01:23:50;97981.84;;;14.79;81.47
5609;BME280;2826;51.354;9.588;2023-07-22T01:26:17;97981.84;;;14.79;81.10
5609;BME280;2826;51.354;9.588;2023-07-22T01:28:44;97979.44;;;14.76;81.30
5609;BME280;2826;51.354;9.588;2023-07-22T01:31:11;97984.66;;;14.76;81.17
5609;BME280;2826;51.354;9.588;2023-07-22T01:33:37;97983.03;;;14.73;81.11
5609;BME280;2826;51.354;9.588;2023-07-22T01:36:04;97975.28;;;14.72;81.08
5609;BME280;2826;51.354;9.588;2023-07-22T01:38:31;97980.59;;;14.70;81.18
5609;BME280;2826;51.354;9.588;2023-07-22T01:40:59;97979.84;;;14.68;81.27
5609;BME280;2826;51.354;9.588;2023-07-22T01:43:26;97982.66;;;14.65;81.43
5609;BME280;2826;51.354;9.588;2023-07-22T01:45:53;97985.34;;;14.63;81.72
5609;BME280;2826;51.354;9.588;2023-07-22T01:48:20;97987.13;;;14.63;81.46
5609;BME280;2826;51.354;9.588;2023-07-22T01:50:47;97987.31;;;14.60;81.67
5609;BME280;2826;51.354;9.588;2023-07-22T01:53:14;97982.25;;;14.57;81.87
5609;BME280;2826;51.354;9.588;2023-07-22T01:55:41;97982.53;;;14.52;82.36
5609;BME280;2826;51.354;9.588;2023-07-22T01:58:09;97985.41;;;14.47;82.30
5609;BME280;2826;51.354;9.588;2023-07-22T02:00:35;97989.03;;;14.45;82.72
5609;BME280;2826;51.354;9.588;2023-07-22T02:03:02;97983.34;;;14.38;83.29
5609;BME280;2826;51.354;9.588;2023-07-22T02:05:29;97986.03;;;14.36;83.28
5609;BME280;2826;51.354;9.588;2023-07-22T02:07:56;97976.78;;;14.31;83.91
5609;BME280;2826;51.354;9.588;2023-07-22T02:10:23;97984.53;;;14.32;84.11
5609;BME280;2826;51.354;9.588;2023-07-22T02:12:49;97980.25;;;14.31;84.81
5609;BME280;2826;51.354;9.588;2023-07-22T02:15:18;97972.25;;;14.34;85.79
5609;BME280;2826;51.354;9.588;2023-07-22T02:17:47;97975.03;;;14.31;86.29
5609;BME280;2826;51.354;9.588;2023-07-22T02:20:13;97980.91;;;14.35;86.31
5609;BME280;2826;51.354;9.588;2023-07-22T02:22:40;97978.28;;;14.35;86.68
5609;BME280;2826;51.354;9.588;2023-07-22T02:25:07;97975.78;;;14.33;86.82
5609;BME280;2826;51.354;9.588;2023-07-22T02:27:36;97983.59;;;14.33;86.22
5609;BME280;2826;51.354;9.588;2023-07-22T02:30:03;97980.97;;;14.33;86.49
5609;BME280;2826;51.354;9.588;2023-07-22T02:32:31;97990.59;;;14.33;86.19
5609;BME280;2826;51.354;9.588;2023-07-22T02:34:58;97989.91;;;14.29;86.63
5609;BME280;2826;51.354;9.588;2023-07-22T02:37:24;97993.66;;;14.25;86.82
5609;BME280;2826;51.354;9.588;2023-07-22T02:39:54;97989.34;;;14.24;86.61
5609;BME280;2826;51.354;9.588;2023-07-22T02:42:20;97995.41;;;14.24;87.06
5609;BME280;2826;51.354;9.588;2023-07-22T02:44:47;97998.97;;;14.23;86.65
5609;BME280;2826;51.354;9.588;2023-07-22T02:47:13;97998.19;;;14.21;87.48
5609;BME280;2826;51.354;9.588;2023-07-22T02:49:41;97997.44;;;14.19;87.34
5609;BME280;2826;51.354;9.588;2023-07-22T02:52:08;97998.19;;;14.21;87.30
5609;BME280;2826;51.354;9.588;2023-07-22T02:54:39;98006.09;;;14.20;87.45
5609;BME280;2826;51.354;9.588;2023-07-22T02:57:06;98003.41;;;14.21;87.02
5609;BME280;2826;51.354;9.588;2023-07-22T02:59:33;98007.97;;;14.18;86.68
5609;BME280;2826;51.354;9.588;2023-07-22T03:02:00;98000.59;;;14.10;86.84
5609;BME280;2826;51.354;9.588;2023-07-22T03:04:26;98002.25;;;14.11;86.90
5609;BME280;2826;51.354;9.588;2023-07-22T03:06:55;98008.31;;;14.11;86.76
5609;BME280;2826;51.354;9.588;2023-07-22T03:09:21;98004.22;;;14.07;86.81
5609;BME280;2826;51.354;9.588;2023-07-22T03:11:48;98002.69;;;14.03;87.12
5609;BME280;2826;51.354;9.588;2023-07-22T03:14:15;98006.22;;;14.02;87.10
5609;BME280;2826;51.354;9.588;2023-07-22T03:16:41;97971.13;;;13.77;87.37
5609;BME280;2826;51.354;9.588;2023-07-22T03:19:08;98004.81;;;13.96;87.42
5609;BME280;2826;51.354;9.588;2023-07-22T03:21:35;98011.03;;;13.94;87.78
5609;BME280;2826;51.354;9.588;2023-07-22T03:24:04;98006.72;;;13.93;87.41
5609;BME280;2826;51.354;9.588;2023-07-22T03:26:31;98006.94;;;13.90;87.84
5609;BME280;2826;51.354;9.588;2023-07-22T03:28:58;98008.69;;;13.89;87.80
5609;BME280;2826;51.354;9.588;2023-07-22T03:31:24;98014.75;;;13.90;87.78
5609;BME280;2826;51.354;9.588;2023-07-22T03:33:51;98017.34;;;13.90;87.52
5609;BME280;2826;51.354;9.588;2023-07-22T03:36:18;98020.97;;;13.87;88.05
5609;BME280;2826;51.354;9.588;2023-07-22T03:38:45;98029.03;;;13.82;88.52
5609;BME280;2826;51.354;9.588;2023-07-22T03:41:13;98028.53;;;13.92;87.91
5609;BME280;2826;51.354;9.588;2023-07-22T03:43:40;98029.28;;;13.94;88.03
5609;BME280;2826;51.354;9.588;2023-07-22T03:46:07;98028.28;;;13.96;87.83
5609;BME280;2826;51.354;9.588;2023-07-22T03:48:34;98029.94;;;13.97;87.93
5609;BME280;2826;51.354;9.588;2023-07-22T03:51:00;98037.69;;;13.99;87.50
5609;BME280;2826;51.354;9.588;2023-07-22T03:53:27;98034.16;;;14.00;87.27
5609;BME280;2826;51.354;9.588;2023-07-22T03:55:54;98033.31;;;14.00;87.47
5609;BME280;2826;51.354;9.588;2023-07-22T03:58:22;98030.44;;;14.04;87.11
5609;BME280;2826;51.354;9.588;2023-07-22T04:00:50;98034.66;;;14.07;87.06
5609;BME280;2826;51.354;9.588;2023-07-22T04:03:17;98023.28;;;14.08;87.26
5609;BME280;2826;51.354;9.588;2023-07-22T04:05:43;98026.91;;;14.05;87.34
5609;BME280;2826;51.354;9.588;2023-07-22T04:08:10;98025.16;;;14.06;87.45
5609;BME280;2826;51.354;9.588;2023-07-22T04:10:37;98024.13;;;14.08;87.37
5609;BME280;2826;51.354;9.588;2023-07-22T04:13:03;98025.81;;;14.09;87.64
5609;BME280;2826;51.354;9.588;2023-07-22T04:15:31;98032.63;;;14.12;87.29
5609;BME280;2826;51.354;9.588;2023-07-22T04:17:59;98031.59;;;14.15;87.40
5609;BME280;2826;51.354;9.588;2023-07-22T04:20:26;98034.22;;;14.15;87.71
5609;BME280;2826;51.354;9.588;2023-07-22T04:22:53;98031.53;;;14.16;88.02
5609;BME280;2826;51.354;9.588;2023-07-22T04:25:20;98032.94;;;14.22;87.83
5609;BME280;2826;51.354;9.588;2023-07-22T04:27:46;98029.72;;;14.33;87.47
5609;BME280;2826;51.354;9.588;2023-07-22T04:30:13;98032.97;;;14.36;86.87
5609;BME280;2826;51.354;9.588;2023-07-22T04:32:48;97982.25;;;14.11;87.30
5609;BME280;2826;51.354;9.588;2023-07-22T04:35:16;98028.25;;;14.43;87.52
5609;BME280;2826;51.354;9.588;2023-07-22T04:37:43;98030.59;;;14.48;87.12
5609;BME280;2826;51.354;9.588;2023-07-22T04:40:11;98032.28;;;14.49;87.26
5609;BME280;2826;51.354;9.588;2023-07-22T04:42:39;98035.72;;;14.49;86.82
5609;BME280;2826;51.354;9.588;2023-07-22T04:45:08;98008.56;;;14.37;87.11
5609;BME280;2826;51.354;9.588;2023-07-22T04:47:35;98024.47;;;14.49;87.14
5609;BME280;2826;51.354;9.588;2023-07-22T04:50:04;98022.78;;;14.48;87.02
5609;BME280;2826;51.354;9.588;2023-07-22T04:52:34;98030.41;;;14.51;86.35
5609;BME280;2826;51.354;9.588;2023-07-22T04:55:01;98027.06;;;14.49;86.47
5609;BME280;2826;51.354;9.588;2023-07-22T04:57:33;98021.00;;;14.48;86.93
5609;BME280;2826;51.354;9.588;2023-07-22T05:00:00;98026.41;;;14.45;86.68
5609;BME280;2826;51.354;9.588;2023-07-22T05:02:29;98024.63;;;14.46;86.99
5609;BME280;2826;51.354;9.588;2023-07-22T05:04:56;98021.84;;;14.49;86.51
5609;BME280;2826;51.354;9.588;2023-07-22T05:07:24;98030.25;;;14.54;86.73
5609;BME280;2826;51.354;9.588;2023-07-22T05:09:50;98028.03;;;14.62;86.41
5609;BME280;2826;51.354;9.588;2023-07-22T05:12:17;97982.06;;;14.45;85.90
5609;BME280;2826;51.354;9.588;2023-07-22T05:14:45;98023.41;;;14.82;85.34
5609;BME280;2826;51.354;9.588;2023-07-22T05:17:12;98032.56;;;14.89;84.87
5609;BME280;2826;51.354;9.588;2023-07-22T05:19:38;98033.13;;;14.95;84.84
5609;BME280;2826;51.354;9.588;2023-07-22T05:22:05;98032.78;;;15.01;84.00
5609;BME280;2826;51.354;9.588;2023-07-22T05:24:33;98032.56;;;15.04;84.11
5609;BME280;2826;51.354;9.588;2023-07-22T05:27:00;98026.16;;;15.10;83.72
5609;BME280;2826;51.354;9.588;2023-07-22T05:29:27;98030.91;;;15.18;84.09
5609;BME280;2826;51.354;9.588;2023-07-22T05:31:53;98026.91;;;15.26;83.14
5609;BME280;2826;51.354;9.588;2023-07-22T05:34:19;98032.69;;;15.32;82.97
5609;BME280;2826;51.354;9.588;2023-07-22T05:36:46;98025.47;;;15.35;82.47
5609;BME280;2826;51.354;9.588;2023-07-22T05:39:13;98029.50;;;15.41;81.69
5609;BME280;2826;51.354;9.588;2023-07-22T05:41:44;98032.75;;;15.45;82.28
5609;BME280;2826;51.354;9.588;2023-07-22T05:44:10;98030.22;;;15.58;81.32
5609;BME280;2826;51.354;9.588;2023-07-22T05:46:37;98043.84;;;15.63;80.76
5609;BME280;2826;51.354;9.588;2023-07-22T05:49:04;98043.44;;;15.69;80.20
5609;BME280;2826;51.354;9.588;2023-07-22T05:51:31;98031.59;;;15.78;80.62
5609;BME280;2826;51.354;9.588;2023-07-22T05:53:57;98037.25;;;15.85;80.07
5609;BME280;2826;51.354;9.588;2023-07-22T05:56:24;98043.84;;;15.90;79.19
5609;BME280;2826;51.354;9.588;2023-07-22T05:58:52;98042.56;;;15.98;80.12
5609;BME280;2826;51.354;9.588;2023-07-22T06:03:49;98052.25;;;16.10;78.22
5609;BME280;2826;51.354;9.588;2023-07-22T06:06:16;98052.34;;;16.09;78.55
5609;BME280;2826;51.354;9.588;2023-07-22T06:08:42;98044.84;;;16.17;78.84
5609;BME280;2826;51.354;9.588;2023-07-22T06:11:09;98055.22;;;16.18;78.67
5609;BME280;2826;51.354;9.588;2023-07-22T06:13:36;98055.00;;;16.22;78.61
5609;BME280;2826;51.354;9.588;2023-07-22T06:16:04;98059.00;;;16.27;78.64
5609;BME280;2826;51.354;9.588;2023-07-22T06:18:31;98054.28;;;16.32;78.54
5609;BME280;2826;51.354;9.588;2023-07-22T06:20:58;98062.25;;;16.31;77.11
5609;BME280;2826;51.354;9.588;2023-07-22T06:23:24;98055.69;;;16.38;77.90
5609;BME280;2826;51.354;9.588;2023-07-22T06:25:51;98058.91;;;16.42;76.68
5609;BME280;2826;51.354;9.588;2023-07-22T06:28:18;98052.53;;;16.46;75.54
5609;BME280;2826;51.354;9.588;2023-07-22T06:30:45;98056.44;;;16.53;76.06
5609;BME280;2826;51.354;9.588;2023-07-22T06:33:13;98056.16;;;16.58;76.21
5609;BME280;2826;51.354;9.588;2023-07-22T06:35:39;98063.16;;;16.70;75.62
5609;BME280;2826;51.354;9.588;2023-07-22T06:38:06;98061.41;;;16.84;75.59
5609;BME280;2826;51.354;9.588;2023-07-22T06:40:32;98053.69;;;16.95;75.33
5609;BME280;2826;51.354;9.588;2023-07-22T06:42:59;98054.53;;;17.09;73.72
5609;BME280;2826;51.354;9.588;2023-07-22T06:45:26;98061.88;;;17.17;72.37
5609;BME280;2826;51.354;9.588;2023-07-22T06:47:52;98060.63;;;17.22;72.52
5609;BME280;2826;51.354;9.588;2023-07-22T06:50:20;98060.81;;;17.32;72.03
5609;BME280;2826;51.354;9.588;2023-07-22T06:52:47;98057.78;;;17.39;71.65
5609;BME280;2826;51.354;9.588;2023-07-22T06:55:15;98062.69;;;17.43;70.30
5609;BME280;2826;51.354;9.588;2023-07-22T06:57:41;98067.69;;;17.59;70.23
5609;BME280;2826;51.354;9.588;2023-07-22T07:00:09;98065.78;;;17.61;70.06
5609;BME280;2826;51.354;9.588;2023-07-22T07:02:36;98037.50;;;17.54;69.01
5609;BME280;2826;51.354;9.588;2023-07-22T07:05:03;98062.78;;;17.55;68.11
5609;BME280;2826;51.354;9.588;2023-07-22T07:07:32;98061.31;;;17.50;69.30
5609;BME280;2826;51.354;9.588;2023-07-22T07:09:59;98065.19;;;17.58;67.57
5609;BME280;2826;51.354;9.588;2023-07-22T07:12:25;98066.44;;;17.65;67.83
5609;BME280;2826;51.354;9.588;2023-07-22T07:14:53;98043.25;;;17.59;68.58
5609;BME280;2826;51.354;9.588;2023-07-22T07:17:19;98068.34;;;17.87;68.67
5609;BME280;2826;51.354;9.588;2023-07-22T07:19:46;98063.81;;;17.89;67.38
5609;BME280;2826;51.354;9.588;2023-07-22T07:22:12;98059.22;;;17.93;67.59
5609;BME280;2826;51.354;9.588;2023-07-22T07:24:41;98056.50;;;17.95;67.89
5609;BME280;2826;51.354;9.588;2023-07-22T07:27:08;98066.53;;;18.01;67.73
5609;BME280;2826;51.354;9.588;2023-07-22T07:29:34;98073.91;;;17.96;66.33
5609;BME280;2826;51.354;9.588;2023-07-22T07:32:01;98073.41;;;17.91;65.79
5609;BME280;2826;51.354;9.588;2023-07-22T07:34:28;98081.56;;;17.99;66.30
5609;BME280;2826;51.354;9.588;2023-07-22T07:36:55;98081.81;;;18.20;66.35
5609;BME280;2826;51.354;9.588;2023-07-22T07:39:22;98083.88;;;18.28;64.53
5609;BME280;2826;51.354;9.588;2023-07-22T07:41:50;98097.78;;;18.41;64.23
5609;BME280;2826;51.354;9.588;2023-07-22T07:44:28;98096.59;;;18.46;63.36
5609;BME280;2826;51.354;9.588;2023-07-22T07:46:55;98100.94;;;18.58;63.28
5609;BME280;2826;51.354;9.588;2023-07-22T07:49:22;98100.75;;;18.73;63.04
5609;BME280;2826;51.354;9.588;2023-07-22T07:51:49;98097.22;;;18.85;62.34
5609;BME280;2826;51.354;9.588;2023-07-22T07:54:15;98094.38;;;19.00;62.37
5609;BME280;2826;51.354;9.588;2023-07-22T07:56:42;98103.50;;;19.18;61.31
5609;BME280;2826;51.354;9.588;2023-07-22T07:59:10;98093.84;;;19.42;60.26
5609;BME280;2826;51.354;9.588;2023-07-22T08:01:36;98093.50;;;19.58;58.57
5609;BME280;2826;51.354;9.588;2023-07-22T08:04:07;98092.38;;;19.83;59.01
5609;BME280;2826;51.354;9.588;2023-07-22T08:06:33;98098.38;;;20.08;59.31
5609;BME280;2826;51.354;9.588;2023-07-22T08:09:01;98105.41;;;20.19;57.19
5609;BME280;2826;51.354;9.588;2023-07-22T08:11:28;98092.69;;;20.24;56.31
5609;BME280;2826;51.354;9.588;2023-07-22T08:13:55;98096.16;;;20.25;56.47
5609;BME280;2826;51.354;9.588;2023-07-22T08:16:23;98094.09;;;20.40;55.90
5609;BME280;2826;51.354;9.588;2023-07-22T08:18:50;98107.09;;;20.42;55.61
5609;BME280;2826;51.354;9.588;2023-07-22T08:21:17;98099.03;;;20.33;56.46
5609;BME280;2826;51.354;9.588;2023-07-22T08:23:43;98096.88;;;20.27;55.48
5609;BME280;2826;51.354;9.588;2023-07-22T08:26:12;98102.41;;;20.13;55.52
5609;BME280;2826;51.354;9.588;2023-07-22T08:28:38;98095.38;;;20.02;55.63
5609;BME280;2826;51.354;9.588;2023-07-22T08:31:05;98101.25;;;19.94;54.84
5609;BME280;2826;51.354;9.588;2023-07-22T08:33:34;98098.72;;;19.92;54.27
5609;BME280;2826;51.354;9.588;2023-07-22T08:36:00;98101.25;;;19.82;54.77
5609;BME280;2826;51.354;9.588;2023-07-22T08:38:28;98095.75;;;19.85;55.58
5609;BME280;2826;51.354;9.588;2023-07-22T08:40:54;98091.78;;;20.03;55.46
5609;BME280;2826;51.354;9.588;2023-07-22T08:43:22;98100.00;;;20.21;54.19
5609;BME280;2826;51.354;9.588;2023-07-22T08:45:51;98101.22;;;20.17;53.90
5609;BME280;2826;51.354;9.588;2023-07-22T08:48:19;98092.97;;;20.10;52.77
5609;BME280;2826;51.354;9.588;2023-07-22T08:50:53;98096.66;;;20.19;53.82
5609;BME280;2826;51.354;9.588;2023-07-22T08:53:21;98094.56;;;20.34;52.33
5609;BME280;2826;51.354;9.588;2023-07-22T08:55:49;98093.47;;;20.48;52.11
5609;BME280;2826;51.354;9.588;2023-07-22T08:58:16;98086.97;;;20.73;51.85
5609;BME280;2826;51.354;9.588;2023-07-22T09:00:43;98075.47;;;20.74;52.04
5609;BME280;2826;51.354;9.588;2023-07-22T09:03:11;98088.50;;;20.87;51.61
5609;BME280;2826;51.354;9.588;2023-07-22T09:05:38;98084.69;;;21.01;52.42
5609;BME280;2826;51.354;9.588;2023-07-22T09:08:07;98057.31;;;20.93;51.09
5609;BME280;2826;51.354;9.588;2023-07-22T09:10:34;98071.81;;;21.30;51.41
5609;BME280;2826;51.354;9.588;2023-07-22T09:13:02;98085.50;;;21.54;49.66
5609;BME280;2826;51.354;9.588;2023-07-22T09:15:29;98078.50;;;21.75;49.47
5609;BME280;2826;51.354;9.588;2023-07-22T09:17:56;98083.84;;;21.95;48.35
5609;BME280;2826;51.354;9.588;2023-07-22T09:20:23;98073.72;;;22.19;47.60
5609;BME280;2826;51.354;9.588;2023-07-22T09:22:51;98078.63;;;22.24;47.26
5609;BME280;2826;51.354;9.588;2023-07-22T09:25:20;98062.34;;;22.39;47.38
5609;BME280;2826;51.354;9.588;2023-07-22T09:27:47;98076.25;;;22.70;47.08
5609;BME280;2826;51.354;9.588;2023-07-22T09:30:21;98071.94;;;22.79;45.71
5609;BME280;2826;51.354;9.588;2023-07-22T09:32:48;98070.28;;;22.68;45.94
5609;BME280;2826;51.354;9.588;2023-07-22T09:35:14;98060.69;;;22.67;45.77
5609;BME280;2826;51.354;9.588;2023-07-22T09:37:41;98057.88;;;22.79;46.53
5609;BME280;2826;51.354;9.588;2023-07-22T09:40:15;98068.44;;;22.79;45.36
5609;BME280;2826;51.354;9.588;2023-07-22T09:42:45;98052.06;;;22.65;45.26
5609;BME280;2826;51.354;9.588;2023-07-22T09:45:12;98063.03;;;22.80;45.11
5609;BME280;2826;51.354;9.588;2023-07-22T09:47:42;98064.56;;;22.83;46.35
5609;BME280;2826;51.354;9.588;2023-07-22T09:50:13;98065.66;;;22.80;46.05
5609;BME280;2826;51.354;9.588;2023-07-22T09:52:44;98057.22;;;22.67;45.41
5609;BME280;2826;51.354;9.588;2023-07-22T09:55:11;98060.25;;;22.72;45.35
5609;BME280;2826;51.354;9.588;2023-07-22T09:57:43;98057.19;;;22.87;45.44
5609;BME280;2826;51.354;9.588;2023-07-22T10:00:12;98056.06;;;22.89;44.00
5609;BME280;2826;51.354;9.588;2023-07-22T10:02:42;98052.31;;;22.82;45.36
5609;BME280;2826;51.354;9.588;2023-07-22T10:05:14;98051.19;;;22.94;45.43
5609;BME280;2826;51.354;9.588;2023-07-22T10:07:46;98033.16;;;23.18;46.45
5609;BME280;2826;51.354;9.588;2023-07-22T10:10:15;98045.19;;;23.40;44.15
5609;BME280;2826;51.354;9.588;2023-07-22T10:12:43;98046.41;;;23.74;43.19
5609;BME280;2826;51.354;9.588;2023-07-22T10:15:13;98049.41;;;23.89;42.37
5609;BME280;2826;51.354;9.588;2023-07-22T10:17:41;98042.53;;;23.96;41.42
5609;BME280;2826;51.354;9.588;2023-07-22T10:20:08;98041.59;;;23.87;41.06
5609;BME280;2826;51.354;9.588;2023-07-22T10:22:41;98041.53;;;23.97;40.52
5609;BME280;2826;51.354;9.588;2023-07-22T10:25:10;98036.59;;;24.12;40.52
5609;BME280;2826;51.354;9.588;2023-07-22T10:27:37;98041.72;;;24.32;40.44
5609;BME280;2826;51.354;9.588;2023-07-22T10:30:07;98042.13;;;24.19;39.88
5609;BME280;2826;51.354;9.588;2023-07-22T10:32:38;98040.69;;;23.97;40.79
5609;BME280;2826;51.354;9.588;2023-07-22T10:35:08;98037.47;;;23.57;41.20
5609;BME280;2826;51.354;9.588;2023-07-22T10:37:36;98032.56;;;23.24;40.97
5609;BME280;2826;51.354;9.588;2023-07-22T10:40:25;98034.53;;;22.84;41.74
5609;BME280;2826;51.354;9.588;2023-07-22T10:42:54;98032.34;;;22.60;41.93
5609;BME280;2826;51.354;9.588;2023-07-22T10:45:25;98026.06;;;22.61;42.48
5609;BME280;2826;51.354;9.588;2023-07-22T10:48:06;98031.75;;;22.76;42.81
5609;BME280;2826;51.354;9.588;2023-07-22T10:50:40;98028.28;;;23.23;42.53
5609;BME280;2826;51.354;9.588;2023-07-22T10:53:10;98020.25;;;23.71;39.94
5609;BME280;2826;51.354;9.588;2023-07-22T10:56:05;98019.09;;;24.20;39.65
5609;BME280;2826;51.354;9.588;2023-07-22T10:58:33;98021.66;;;24.48;40.33
5609;BME280;2826;51.354;9.588;2023-07-22T11:01:22;98018.28;;;24.64;39.19
5609;BME280;2826;51.354;9.588;2023-07-22T11:04:05;98015.63;;;24.64;38.72
5609;BME280;2826;51.354;9.588;2023-07-22T11:06:32;98015.56;;;24.56;38.46
5609;BME280;2826;51.354;9.588;2023-07-22T11:08:59;98000.25;;;24.67;38.72
5609;BME280;2826;51.354;9.588;2023-07-22T11:11:35;97990.75;;;24.83;38.88
5609;BME280;2826;51.354;9.588;2023-07-22T11:14:13;97995.72;;;25.13;38.54
5609;BME280;2826;51.354;9.588;2023-07-22T11:16:40;97998.63;;;25.36;37.08
5609;BME280;2826;51.354;9.588;2023-07-22T11:19:09;97996.50;;;25.40;37.26
5609;BME280;2826;51.354;9.588;2023-07-22T11:21:36;97982.88;;;25.35;36.00
5609;BME280;2826;51.354;9.588;2023-07-22T11:24:03;97995.47;;;25.33;36.64
5609;BME280;2826;51.354;9.588;2023-07-22T11:26:30;97994.69;;;25.49;37.18
5609;BME280;2826;51.354;9.588;2023-07-22T11:28:57;97986.34;;;25.35;36.81
5609;BME280;2826;51.354;9.588;2023-07-22T11:31:30;97985.81;;;25.23;36.88
5609;BME280;2826;51.354;9.588;2023-07-22T11:33:57;97983.44;;;25.12;37.74
5609;BME280;2826;51.354;9.588;2023-07-22T11:36:25;97976.53;;;25.27;36.67
5609;BME280;2826;51.354;9.588;2023-07-22T11:38:52;97979.53;;;25.33;36.18
5609;BME280;2826;51.354;9.588;2023-07-22T11:41:20;97975.66;;;25.18;36.21
5609;BME280;2826;51.354;9.588;2023-07-22T11:43:46;97975.50;;;25.20;37.87
5609;BME280;2826;51.354;9.588;2023-07-22T11:46:13;97971.81;;;25.48;36.85
5609;BME280;2826;51.354;9.588;2023-07-22T11:48:48;97974.06;;;25.94;37.53
5609;BME280;2826;51.354;9.588;2023-07-22T11:51:16;97961.13;;;26.24;35.54
5609;BME280;2826;51.354;9.588;2023-07-22T11:53:46;97962.78;;;26.25;35.22
5609;BME280;2826;51.354;9.588;2023-07-22T11:56:17;97954.81;;;26.25;35.84
5609;BME280;2826;51.354;9.588;2023-07-22T11:58:48;97969.97;;;26.41;35.48
5609;BME280;2826;51.354;9.588;2023-07-22T12:01:15;97933.56;;;26.42;35.91
5609;BME280;2826;51.354;9.588;2023-07-22T12:03:42;97957.56;;;26.82;34.58
5609;BME280;2826;51.354;9.588;2023-07-22T12:06:08;97955.06;;;26.80;34.04
5609;BME280;2826;51.354;9.588;2023-07-22T12:08:35;97957.13;;;26.61;34.00
5609;BME280;2826;51.354;9.588;2023-07-22T12:11:03;97954.66;;;26.52;33.88
5609;BME280;2826;51.354;9.588;2023-07-22T12:13:36;97932.91;;;26.31;34.11
5609;BME280;2826;51.354;9.588;2023-07-22T12:16:04;97942.03;;;26.37;33.86
5609;BME280;2826;51.354;9.588;2023-07-22T12:18:41;97942.47;;;26.74;34.47
5609;BME280;2826;51.354;9.588;2023-07-22T12:21:08;97955.34;;;27.10;34.56
5609;BME280;2826;51.354;9.588;2023-07-22T12:23:36;97940.16;;;27.51;33.76
5609;BME280;2826;51.354;9.588;2023-07-22T12:26:05;97940.22;;;27.43;32.46
5609;BME280;2826;51.354;9.588;2023-07-22T12:28:32;97946.50;;;27.18;33.06
5609;BME280;2826;51.354;9.588;2023-07-22T12:30:58;97933.44;;;26.92;33.30
5609;BME280;2826;51.354;9.588;2023-07-22T12:33:25;97929.34;;;26.72;32.68
5609;BME280;2826;51.354;9.588;2023-07-22T12:35:53;97937.16;;;26.74;32.39
5609;BME280;2826;51.354;9.588;2023-07-22T12:38:20;97932.19;;;26.63;33.04
5609;BME280;2826;51.354;9.588;2023-07-22T12:40:47;97936.41;;;26.40;32.88
5609;BME280;2826;51.354;9.588;2023-07-22T12:43:15;97937.06;;;26.34;33.85
5609;BME280;2826;51.354;9.588;2023-07-22T12:45:42;97930.41;;;26.30;33.32
5609;BME280;2826;51.354;9.588;2023-07-22T12:48:08;97919.28;;;26.18;33.07
5609;BME280;2826;51.354;9.588;2023-07-22T12:50:35;97923.28;;;26.30;33.24
5609;BME280;2826;51.354;9.588;2023-07-22T12:53:02;97927.06;;;26.53;33.27
5609;BME280;2826;51.354;9.588;2023-07-22T12:55:29;97916.53;;;26.68;33.44
5609;BME280;2826;51.354;9.588;2023-07-22T12:57:56;97919.34;;;26.74;32.71
5609;BME280;2826;51.354;9.588;2023-07-22T13:00:24;97917.00;;;26.80;31.81
5609;BME280;2826;51.354;9.588;2023-07-22T13:02:51;97917.03;;;27.20;31.88
5609;BME280;2826;51.354;9.588;2023-07-22T13:05:18;97914.31;;;27.36;32.19
5609;BME280;2826;51.354;9.588;2023-07-22T13:07:45;97917.94;;;27.35;32.01
5609;BME280;2826;51.354;9.588;2023-07-22T13:10:11;97922.34;;;27.51;30.53
5609;BME280;2826;51.354;9.588;2023-07-22T13:12:42;97916.81;;;27.61;29.93
5609;BME280;2826;51.354;9.588;2023-07-22T13:15:09;97918.78;;;27.68;30.51
5609;BME280;2826;51.354;9.588;2023-07-22T13:17:38;97913.50;;;27.59;29.87
5609;BME280;2826;51.354;9.588;2023-07-22T13:20:05;97909.09;;;27.43;30.69
5609;BME280;2826;51.354;9.588;2023-07-22T13:22:34;97901.63;;;27.38;30.91
5609;BME280;2826;51.354;9.588;2023-07-22T13:25:02;97907.28;;;27.35;31.16
5609;BME280;2826;51.354;9.588;2023-07-22T13:27:29;97911.25;;;27.39;30.42